sensor_id;sensor_type;location;lat;lon;timestamp;pressure;altitude;pressure_sealevel;temperature;humidity
6680;BME280;3376;42.664;23.346;2024-01-30T00:01:55;96451.31;;;0.68;84.57
6680;BME280;3376;42.664;23.346;2024-01-30T00:04:22;96451.09;;;0.72;84.21
6680;BME280;3376;42.664;23.346;2024-01-30T00:06:51;96454.34;;;0.76;84.27
6680;BME280;3376;42.664;23.346;2024-01-30T00:09:19;96453.47;;;0.58;86.04
6680;BME280;3376;42.664;23.346;2024-01-30T00:11:46;96428.75;;;0.40;85.59
6680;BME280;3376;42.664;23.346;2024-01-30T00:14:13;96450.84;;;0.60;84.97
6680;BME280;3376;42.664;23.346;2024-01-30T00:16:40;96460.97;;;0.61;85.97
6680;BME280;3376;42.664;23.346;2024-01-30T00:19:07;96460.97;;;0.61;85.20
6680;BME280;3376;42.664;23.346;2024-01-30T00:21:34;96461.44;;;0.51;86.08
6680;BME280;3376;42.664;23.346;2024-01-30T00:24:01;96463.31;;;0.66;83.63
6680;BME280;3376;42.664;23.346;2024-01-30T00:26:29;96461.97;;;0.57;84.15
6680;BME280;3376;42.664;23.346;2024-01-30T00:28:56;96462.91;;;0.56;85.15
6680;BME280;3376;42.664;23.346;2024-01-30T00:31:24;96449.78;;;0.45;85.01
6680;BME280;3376;42.664;23.346;2024-01-30T00:33:51;96463.63;;;0.40;85.39
6680;BME280;3376;42.664;23.346;2024-01-30T00:36:18;96456.31;;;0.32;85.89
6680;BME280;3376;42.664;23.346;2024-01-30T00:38:45;96444.44;;;0.31;85.19
6680;BME280;3376;42.664;23.346;2024-01-30T00:41:12;96457.72;;;0.39;85.14
6680;BME280;3376;42.664;23.346;2024-01-30T00:43:41;96454.47;;;0.36;85.26
6680;BME280;3376;42.664;23.346;2024-01-30T00:46:08;96458.09;;;0.30;86.29
6680;BME280;3376;42.664;23.346;2024-01-30T00:48:35;96456.03;;;0.38;85.79
6680;BME280;3376;42.664;23.346;2024-01-30T00:51:01;96453.50;;;0.38;84.72
6680;BME280;3376;42.664;23.346;2024-01-30T00:53:28;96453.69;;;0.34;85.15
6680;BME280;3376;42.664;23.346;2024-01-30T00:55:56;96454.53;;;0.34;85.87
6680;BME280;3376;42.664;23.346;2024-01-30T00:58:23;96444.44;;;0.31;85.56
6680;BME280;3376;42.664;23.346;2024-01-30T01:00:51;96455.47;;;0.32;86.61
6680;BME280;3376;42.664;23.346;2024-01-30T01:03:18;96449.69;;;0.28;85.70
6680;BME280;3376;42.664;23.346;2024-01-30T01:05:45;96459.41;;;0.20;86.57
6680;BME280;3376;42.664;23.346;2024-01-30T01:08:12;96444.81;;;0.03;88.42
6680;BME280;3376;42.664;23.346;2024-01-30T01:10:40;96448.34;;;0.01;88.74
6680;BME280;3376;42.664;23.346;2024-01-30T01:13:07;96442.97;;;0.07;89.46
6680;BME280;3376;42.664;23.346;2024-01-30T01:15:34;96445.56;;;0.06;89.30
6680;BME280;3376;42.664;23.346;2024-01-30T01:18:04;96448.97;;;0.06;89.15
6680;BME280;3376;42.664;23.346;2024-01-30T01:20:31;96448.53;;;-0.04;89.69
6680;BME280;3376;42.664;23.346;2024-01-30T01:22:58;96455.50;;;-0.09;89.77
6680;BME280;3376;42.664;23.346;2024-01-30T01:25:25;96458.28;;;-0.13;90.18
6680;BME280;3376;42.664;23.346;2024-01-30T01:27:52;96427.59;;;-0.30;90.64
6680;BME280;3376;42.664;23.346;2024-01-30T01:30:19;96452.78;;;-0.04;90.17
6680;BME280;3376;42.664;23.346;2024-01-30T01:32:48;96453.56;;;-0.02;88.90
6680;BME280;3376;42.664;23.346;2024-01-30T01:35:22;96452.16;;;-0.09;87.91
6680;BME280;3376;42.664;23.346;2024-01-30T01:37:50;96351.41;;;-0.75;88.29
6680;BME280;3376;42.664;23.346;2024-01-30T01:40:21;96465.34;;;-0.20;89.49
6680;BME280;3376;42.664;23.346;2024-01-30T01:42:49;96449.34;;;-0.23;90.12
6680;BME280;3376;42.664;23.346;2024-01-30T01:45:16;96438.28;;;-0.22;91.11
6680;BME280;3376;42.664;23.346;2024-01-30T01:47:44;96458.72;;;-0.24;91.28
6680;BME280;3376;42.664;23.346;2024-01-30T01:50:12;96442.78;;;-0.29;90.92
6680;BME280;3376;42.664;23.346;2024-01-30T01:52:41;96451.78;;;-0.20;89.82
6680;BME280;3376;42.664;23.346;2024-01-30T01:55:08;96428.72;;;-0.37;89.93
6680;BME280;3376;42.664;23.346;2024-01-30T01:57:35;96458.53;;;-0.19;90.09
6680;BME280;3376;42.664;23.346;2024-01-30T02:00:03;96456.16;;;-0.24;89.87
6680;BME280;3376;42.664;23.346;2024-01-30T02:02:30;96463.69;;;-0.21;90.51
6680;BME280;3376;42.664;23.346;2024-01-30T02:04:58;96448.47;;;-0.22;89.70
6680;BME280;3376;42.664;23.346;2024-01-30T02:07:27;96467.25;;;-0.05;89.47
6680;BME280;3376;42.664;23.346;2024-01-30T02:09:56;96452.66;;;-0.01;87.82
6680;BME280;3376;42.664;23.346;2024-01-30T02:12:23;96463.22;;;0.10;88.11
6680;BME280;3376;42.664;23.346;2024-01-30T02:14:50;96455.13;;;0.00;89.01
6680;BME280;3376;42.664;23.346;2024-01-30T02:17:17;96461.50;;;-0.10;88.43
6680;BME280;3376;42.664;23.346;2024-01-30T02:19:44;96467.06;;;0.00;88.75
6680;BME280;3376;42.664;23.346;2024-01-30T02:22:13;96459.16;;;0.06;89.95
6680;BME280;3376;42.664;23.346;2024-01-30T02:24:40;96460.94;;;0.04;90.31
6680;BME280;3376;42.664;23.346;2024-01-30T02:27:07;96457.50;;;0.05;90.41
6680;BME280;3376;42.664;23.346;2024-01-30T02:29:34;96443.09;;;0.04;90.06
6680;BME280;3376;42.664;23.346;2024-01-30T02:32:01;96454.53;;;0.14;91.19
6680;BME280;3376;42.664;23.346;2024-01-30T02:34:28;96454.00;;;0.08;90.86
6680;BME280;3376;42.664;23.346;2024-01-30T02:36:55;96456.75;;;0.03;91.17
6680;BME280;3376;42.664;23.346;2024-01-30T02:39:23;96459.16;;;0.06;88.97
6680;BME280;3376;42.664;23.346;2024-01-30T02:41:50;96458.06;;;0.12;89.54
6680;BME280;3376;42.664;23.346;2024-01-30T02:44:17;96455.38;;;0.15;88.25
6680;BME280;3376;42.664;23.346;2024-01-30T02:46:45;96466.91;;;0.23;88.73
6680;BME280;3376;42.664;23.346;2024-01-30T02:49:12;96438.09;;;0.21;87.61
6680;BME280;3376;42.664;23.346;2024-01-30T02:51:39;96462.13;;;0.54;86.30
6680;BME280;3376;42.664;23.346;2024-01-30T02:54:06;96463.22;;;0.67;85.31
6680;BME280;3376;42.664;23.346;2024-01-30T02:56:34;96459.44;;;0.76;84.30
6680;BME280;3376;42.664;23.346;2024-01-30T02:59:01;96461.97;;;0.76;85.46
6680;BME280;3376;42.664;23.346;2024-01-30T03:01:28;96459.59;;;0.73;84.68
6680;BME280;3376;42.664;23.346;2024-01-30T03:03:55;96421.47;;;0.51;83.53
6680;BME280;3376;42.664;23.346;2024-01-30T03:06:22;96453.16;;;0.64;84.17
6680;BME280;3376;42.664;23.346;2024-01-30T03:08:49;96447.53;;;0.76;85.80
6680;BME280;3376;42.664;23.346;2024-01-30T03:11:16;96455.78;;;0.81;84.27
6680;BME280;3376;42.664;23.346;2024-01-30T03:13:45;96449.59;;;0.68;84.36
6680;BME280;3376;42.664;23.346;2024-01-30T03:16:12;96452.81;;;0.90;84.32
6680;BME280;3376;42.664;23.346;2024-01-30T03:18:38;96452.22;;;0.85;84.96
6680;BME280;3376;42.664;23.346;2024-01-30T03:21:05;96460.75;;;0.84;84.94
6680;BME280;3376;42.664;23.346;2024-01-30T03:23:32;96455.94;;;0.60;85.70
6680;BME280;3376;42.664;23.346;2024-01-30T03:25:59;96443.31;;;0.57;85.34
6680;BME280;3376;42.664;23.346;2024-01-30T03:28:26;96455.72;;;0.64;86.58
6680;BME280;3376;42.664;23.346;2024-01-30T03:30:54;96452.63;;;0.58;87.28
6680;BME280;3376;42.664;23.346;2024-01-30T03:33:21;96431.38;;;0.57;85.99
6680;BME280;3376;42.664;23.346;2024-01-30T03:35:48;96430.22;;;0.64;86.22
6680;BME280;3376;42.664;23.346;2024-01-30T03:38:15;96437.56;;;0.70;86.72
6680;BME280;3376;42.664;23.346;2024-01-30T03:40:42;96446.84;;;0.73;87.19
6680;BME280;3376;42.664;23.346;2024-01-30T03:43:09;96446.69;;;0.76;87.10
6680;BME280;3376;42.664;23.346;2024-01-30T03:45:36;96440.56;;;0.80;86.07
6680;BME280;3376;42.664;23.346;2024-01-30T03:48:06;96417.13;;;0.53;86.73
6680;BME280;3376;42.664;23.346;2024-01-30T03:50:33;96439.41;;;0.68;87.21
6680;BME280;3376;42.664;23.346;2024-01-30T03:53:00;96382.88;;;0.40;86.81
6680;BME280;3376;42.664;23.346;2024-01-30T03:55:27;96425.44;;;0.57;87.37
6680;BME280;3376;42.664;23.346;2024-01-30T03:57:54;96427.81;;;0.61;86.94
6680;BME280;3376;42.664;23.346;2024-01-30T04:00:21;96434.41;;;0.65;87.45
6680;BME280;3376;42.664;23.346;2024-01-30T04:02:47;96427.66;;;0.64;85.95
6680;BME280;3376;42.664;23.346;2024-01-30T04:05:17;96430.00;;;0.50;86.95
6680;BME280;3376;42.664;23.346;2024-01-30T04:07:44;96424.72;;;0.55;86.42
6680;BME280;3376;42.664;23.346;2024-01-30T04:10:11;96421.81;;;0.44;85.70
6680;BME280;3376;42.664;23.346;2024-01-30T04:12:38;96433.47;;;0.49;84.76
6680;BME280;3376;42.664;23.346;2024-01-30T04:15:06;96397.09;;;0.27;85.10
6680;BME280;3376;42.664;23.346;2024-01-30T04:17:33;96435.72;;;0.55;83.44
6680;BME280;3376;42.664;23.346;2024-01-30T04:20:00;96404.91;;;0.41;82.70
6680;BME280;3376;42.664;23.346;2024-01-30T04:22:28;96438.28;;;0.55;82.73
6680;BME280;3376;42.664;23.346;2024-01-30T04:24:55;96436.88;;;0.48;84.14
6680;BME280;3376;42.664;23.346;2024-01-30T04:27:22;96438.81;;;0.43;84.25
6680;BME280;3376;42.664;23.346;2024-01-30T04:29:49;96442.19;;;0.44;84.79
6680;BME280;3376;42.664;23.346;2024-01-30T04:32:16;96438.41;;;0.52;84.75
6680;BME280;3376;42.664;23.346;2024-01-30T04:34:43;96434.63;;;0.42;85.78
6680;BME280;3376;42.664;23.346;2024-01-30T04:37:10;96450.84;;;0.60;85.52
6680;BME280;3376;42.664;23.346;2024-01-30T04:39:39;96434.28;;;0.50;84.12
6680;BME280;3376;42.664;23.346;2024-01-30T04:42:06;96451.31;;;0.49;85.08
6680;BME280;3376;42.664;23.346;2024-01-30T04:44:33;96442.81;;;0.49;85.64
6680;BME280;3376;42.664;23.346;2024-01-30T04:47:00;96420.63;;;0.32;86.73
6680;BME280;3376;42.664;23.346;2024-01-30T04:49:27;96409.94;;;0.24;86.94
6680;BME280;3376;42.664;23.346;2024-01-30T04:51:54;96458.81;;;0.52;86.77
6680;BME280;3376;42.664;23.346;2024-01-30T04:54:21;96454.88;;;0.45;87.32
6680;BME280;3376;42.664;23.346;2024-01-30T04:56:50;96446.19;;;0.31;87.89
6680;BME280;3376;42.664;23.346;2024-01-30T04:59:16;96453.84;;;0.31;87.55
6680;BME280;3376;42.664;23.346;2024-01-30T05:01:43;96461.72;;;0.25;87.35
6680;BME280;3376;42.664;23.346;2024-01-30T05:04:10;96434.69;;;0.02;87.00
6680;BME280;3376;42.664;23.346;2024-01-30T05:06:37;96466.91;;;0.23;87.62
6680;BME280;3376;42.664;23.346;2024-01-30T05:09:04;96471.69;;;0.11;87.07
6680;BME280;3376;42.664;23.346;2024-01-30T05:11:36;96468.06;;;0.16;87.13
6680;BME280;3376;42.664;23.346;2024-01-30T05:14:05;96459.00;;;0.09;86.17
6680;BME280;3376;42.664;23.346;2024-01-30T05:16:32;96449.22;;;0.20;100.00
6680;BME280;3376;42.664;23.346;2024-01-30T05:19:00;96461.66;;;0.26;91.03
6680;BME280;3376;42.664;23.346;2024-01-30T05:21:27;96460.56;;;0.13;87.86
6680;BME280;3376;42.664;23.346;2024-01-30T05:23:54;96468.69;;;0.21;87.65
6680;BME280;3376;42.664;23.346;2024-01-30T05:26:20;96467.19;;;0.17;98.58
6680;BME280;3376;42.664;23.346;2024-01-30T05:28:48;96467.19;;;0.17;89.18
6680;BME280;3376;42.664;23.346;2024-01-30T05:31:16;96476.91;;;0.08;86.71
6680;BME280;3376;42.664;23.346;2024-01-30T05:33:43;96464.38;;;0.03;86.02
6680;BME280;3376;42.664;23.346;2024-01-30T05:36:12;96472.47;;;-0.08;86.15
6680;BME280;3376;42.664;23.346;2024-01-30T05:38:39;96472.16;;;0.00;83.58
6680;BME280;3376;42.664;23.346;2024-01-30T05:41:06;96470.88;;;0.10;82.05
6680;BME280;3376;42.664;23.346;2024-01-30T05:43:34;96476.66;;;0.14;81.01
6680;BME280;3376;42.664;23.346;2024-01-30T05:46:01;96464.97;;;-0.11;82.32
6680;BME280;3376;42.664;23.346;2024-01-30T05:48:29;96473.31;;;-0.07;84.09
6680;BME280;3376;42.664;23.346;2024-01-30T05:50:56;96479.81;;;0.00;84.20
6680;BME280;3376;42.664;23.346;2024-01-30T05:53:25;96468.78;;;-0.01;81.42
6680;BME280;3376;42.664;23.346;2024-01-30T05:55:52;96475.28;;;0.07;80.93
6680;BME280;3376;42.664;23.346;2024-01-30T05:58:19;96477.16;;;0.22;79.20
6680;BME280;3376;42.664;23.346;2024-01-30T06:00:47;96468.34;;;0.10;81.07
6680;BME280;3376;42.664;23.346;2024-01-30T06:03:14;96459.66;;;-0.06;81.86
6680;BME280;3376;42.664;23.346;2024-01-30T06:05:42;96473.16;;;-0.04;82.02
6680;BME280;3376;42.664;23.346;2024-01-30T06:08:09;96469.63;;;0.00;83.17
6680;BME280;3376;42.664;23.346;2024-01-30T06:10:36;96467.44;;;-0.09;84.61
6680;BME280;3376;42.664;23.346;2024-01-30T06:13:03;96472.13;;;-0.20;83.71
6680;BME280;3376;42.664;23.346;2024-01-30T06:15:30;96473.16;;;-0.04;84.39
6680;BME280;3376;42.664;23.346;2024-01-30T06:17:58;96463.84;;;-0.05;81.97
6680;BME280;3376;42.664;23.346;2024-01-30T06:20:25;96482.72;;;0.11;81.26
6680;BME280;3376;42.664;23.346;2024-01-30T06:22:54;96485.03;;;0.17;81.26
6680;BME280;3376;42.664;23.346;2024-01-30T06:25:21;96477.47;;;0.14;82.25
6680;BME280;3376;42.664;23.346;2024-01-30T06:27:48;96485.91;;;0.16;83.25
6680;BME280;3376;42.664;23.346;2024-01-30T06:30:15;96485.91;;;0.16;83.36
6680;BME280;3376;42.664;23.346;2024-01-30T06:32:42;96490.47;;;0.28;83.99
6680;BME280;3376;42.664;23.346;2024-01-30T06:35:09;96485.94;;;0.35;84.49
6680;BME280;3376;42.664;23.346;2024-01-30T06:37:37;96486.53;;;0.78;84.65
6680;BME280;3376;42.664;23.346;2024-01-30T06:40:06;96477.88;;;1.54;82.09
6680;BME280;3376;42.664;23.346;2024-01-30T06:42:34;96486.69;;;2.49;80.07
6680;BME280;3376;42.664;23.346;2024-01-30T06:45:01;96481.88;;;3.99;74.02
6680;BME280;3376;42.664;23.346;2024-01-30T06:47:28;96484.38;;;5.53;67.85
6680;BME280;3376;42.664;23.346;2024-01-30T06:49:56;96493.03;;;6.81;59.07
6680;BME280;3376;42.664;23.346;2024-01-30T06:52:23;96475.59;;;7.69;57.48
6680;BME280;3376;42.664;23.346;2024-01-30T06:54:50;96501.88;;;9.00;53.30
6680;BME280;3376;42.664;23.346;2024-01-30T06:57:18;96491.34;;;10.11;46.80
6680;BME280;3376;42.664;23.346;2024-01-30T06:59:46;96489.91;;;10.38;45.59
6680;BME280;3376;42.664;23.346;2024-01-30T07:02:13;96496.72;;;11.50;40.34
6680;BME280;3376;42.664;23.346;2024-01-30T07:04:40;96505.31;;;12.00;37.20
6680;BME280;3376;42.664;23.346;2024-01-30T07:07:07;96492.44;;;12.46;36.50
6680;BME280;3376;42.664;23.346;2024-01-30T07:09:38;96496.34;;;13.35;36.49
6680;BME280;3376;42.664;23.346;2024-01-30T07:12:05;96499.53;;;12.73;36.33
6680;BME280;3376;42.664;23.346;2024-01-30T07:14:34;96494.25;;;14.10;33.57
6680;BME280;3376;42.664;23.346;2024-01-30T07:17:01;96495.38;;;14.43;31.27
6680;BME280;3376;42.664;23.346;2024-01-30T07:19:28;96475.19;;;14.09;32.79
6680;BME280;3376;42.664;23.346;2024-01-30T07:21:55;96492.25;;;14.57;32.38
6680;BME280;3376;42.664;23.346;2024-01-30T07:24:22;96466.56;;;14.95;30.48
6680;BME280;3376;42.664;23.346;2024-01-30T07:26:49;96501.34;;;15.29;30.53
6680;BME280;3376;42.664;23.346;2024-01-30T07:29:16;96500.06;;;15.33;30.72
6680;BME280;3376;42.664;23.346;2024-01-30T07:31:45;96496.97;;;14.79;28.19
6680;BME280;3376;42.664;23.346;2024-01-30T07:34:12;96460.47;;;14.87;28.31
6680;BME280;3376;42.664;23.346;2024-01-30T07:36:39;96489.28;;;15.37;28.48
6680;BME280;3376;42.664;23.346;2024-01-30T07:39:06;96492.00;;;14.15;28.58
6680;BME280;3376;42.664;23.346;2024-01-30T07:41:33;96489.50;;;13.61;28.38
6680;BME280;3376;42.664;23.346;2024-01-30T07:44:00;96466.81;;;13.71;29.39
6680;BME280;3376;42.664;23.346;2024-01-30T07:46:27;96493.56;;;12.99;30.59
6680;BME280;3376;42.664;23.346;2024-01-30T07:48:55;96487.56;;;12.34;30.85
6680;BME280;3376;42.664;23.346;2024-01-30T07:51:23;96352.53;;;10.99;31.00
6680;BME280;3376;42.664;23.346;2024-01-30T07:53:50;96489.38;;;10.86;32.50
6680;BME280;3376;42.664;23.346;2024-01-30T07:56:17;96475.78;;;10.93;32.81
6680;BME280;3376;42.664;23.346;2024-01-30T07:58:44;96482.09;;;11.49;33.43
6680;BME280;3376;42.664;23.346;2024-01-30T08:01:11;96478.66;;;11.89;32.47
6680;BME280;3376;42.664;23.346;2024-01-30T08:03:38;96472.69;;;11.58;31.07
6680;BME280;3376;42.664;23.346;2024-01-30T08:06:09;96485.19;;;11.83;31.51
6680;BME280;3376;42.664;23.346;2024-01-30T08:08:36;96487.53;;;12.24;31.21
6680;BME280;3376;42.664;23.346;2024-01-30T08:11:04;96481.31;;;12.73;31.62
6680;BME280;3376;42.664;23.346;2024-01-30T08:13:31;96477.44;;;13.33;30.15
6680;BME280;3376;42.664;23.346;2024-01-30T08:15:58;96480.78;;;13.70;30.03
6680;BME280;3376;42.664;23.346;2024-01-30T08:18:25;96478.97;;;14.15;29.20
6680;BME280;3376;42.664;23.346;2024-01-30T08:20:51;96482.78;;;14.81;28.75
6680;BME280;3376;42.664;23.346;2024-01-30T08:23:20;96485.28;;;15.16;27.59
6680;BME280;3376;42.664;23.346;2024-01-30T08:25:47;96477.03;;;15.71;28.11
6680;BME280;3376;42.664;23.346;2024-01-30T08:28:14;96472.66;;;15.71;26.70
6680;BME280;3376;42.664;23.346;2024-01-30T08:30:41;96487.84;;;15.76;26.09
6680;BME280;3376;42.664;23.346;2024-01-30T08:33:08;96482.50;;;15.93;26.50
6680;BME280;3376;42.664;23.346;2024-01-30T08:35:34;96491.84;;;16.04;26.48
6680;BME280;3376;42.664;23.346;2024-01-30T08:38:01;96491.06;;;16.43;25.72
6680;BME280;3376;42.664;23.346;2024-01-30T08:40:30;96497.28;;;16.75;25.93
6680;BME280;3376;42.664;23.346;2024-01-30T08:42:57;96491.69;;;17.10;25.25
6680;BME280;3376;42.664;23.346;2024-01-30T08:45:24;96499.50;;;17.18;24.99
6680;BME280;3376;42.664;23.346;2024-01-30T08:47:51;96499.66;;;17.24;24.86
6680;BME280;3376;42.664;23.346;2024-01-30T08:50:18;96506.47;;;17.57;24.28
6680;BME280;3376;42.664;23.346;2024-01-30T08:52:45;96479.38;;;17.73;24.69
6680;BME280;3376;42.664;23.346;2024-01-30T08:55:12;96507.28;;;17.58;26.76
6680;BME280;3376;42.664;23.346;2024-01-30T08:57:40;96503.63;;;16.32;27.11
6680;BME280;3376;42.664;23.346;2024-01-30T09:00:08;96472.88;;;14.42;30.04
6680;BME280;3376;42.664;23.346;2024-01-30T09:02:35;96508.16;;;14.97;26.77
6680;BME280;3376;42.664;23.346;2024-01-30T09:05:03;96510.25;;;15.19;27.39
6680;BME280;3376;42.664;23.346;2024-01-30T09:07:30;96509.94;;;15.89;26.31
6680;BME280;3376;42.664;23.346;2024-01-30T09:09:57;96508.91;;;16.80;25.38
6680;BME280;3376;42.664;23.346;2024-01-30T09:12:23;96504.34;;;17.45;24.38
6680;BME280;3376;42.664;23.346;2024-01-30T09:14:52;96501.66;;;17.77;24.11
6680;BME280;3376;42.664;23.346;2024-01-30T09:17:19;96501.38;;;18.25;23.83
6680;BME280;3376;42.664;23.346;2024-01-30T09:19:46;96489.22;;;18.24;22.92
6680;BME280;3376;42.664;23.346;2024-01-30T09:22:13;96489.63;;;18.44;23.90
6680;BME280;3376;42.664;23.346;2024-01-30T09:24:40;96492.06;;;18.68;23.62
6680;BME280;3376;42.664;23.346;2024-01-30T09:27:07;96485.09;;;18.75;22.77
6680;BME280;3376;42.664;23.346;2024-01-30T09:29:34;96494.88;;;18.44;22.93
6680;BME280;3376;42.664;23.346;2024-01-30T09:32:04;96492.06;;;18.68;22.75
6680;BME280;3376;42.664;23.346;2024-01-30T09:34:31;96479.88;;;18.90;22.17
6680;BME280;3376;42.664;23.346;2024-01-30T09:36:58;96493.59;;;19.14;22.09
6680;BME280;3376;42.664;23.346;2024-01-30T09:39:25;96466.41;;;18.70;23.29
6680;BME280;3376;42.664;23.346;2024-01-30T09:41:58;96479.13;;;17.60;24.07
6680;BME280;3376;42.664;23.346;2024-01-30T09:44:29;96480.41;;;16.29;24.95
6680;BME280;3376;42.664;23.346;2024-01-30T09:46:56;96475.56;;;15.01;26.92
6680;BME280;3376;42.664;23.346;2024-01-30T09:49:31;96480.47;;;14.53;27.98
6680;BME280;3376;42.664;23.346;2024-01-30T09:51:58;96480.53;;;13.73;28.50
6680;BME280;3376;42.664;23.346;2024-01-30T09:54:25;96479.50;;;12.08;32.37
6680;BME280;3376;42.664;23.346;2024-01-30T09:56:52;96475.66;;;10.74;34.92
6680;BME280;3376;42.664;23.346;2024-01-30T09:59:19;96479.03;;;10.44;35.62
6680;BME280;3376;42.664;23.346;2024-01-30T10:01:46;96479.31;;;9.35;37.29
6680;BME280;3376;42.664;23.346;2024-01-30T10:04:13;96481.22;;;8.89;38.84
6680;BME280;3376;42.664;23.346;2024-01-30T10:06:42;96455.84;;;8.72;39.68
6680;BME280;3376;42.664;23.346;2024-01-30T10:09:09;96466.16;;;10.02;38.52
6680;BME280;3376;42.664;23.346;2024-01-30T10:11:36;96465.09;;;11.26;36.18
6680;BME280;3376;42.664;23.346;2024-01-30T10:14:03;96457.72;;;12.47;34.38
6680;BME280;3376;42.664;23.346;2024-01-30T10:16:30;96451.78;;;13.11;33.07
6680;BME280;3376;42.664;23.346;2024-01-30T10:18:56;96460.56;;;13.64;32.56
6680;BME280;3376;42.664;23.346;2024-01-30T10:21:23;96461.25;;;14.18;31.30
6680;BME280;3376;42.664;23.346;2024-01-30T10:23:51;96453.50;;;14.44;30.67
6680;BME280;3376;42.664;23.346;2024-01-30T10:26:19;96463.78;;;14.97;29.23
6680;BME280;3376;42.664;23.346;2024-01-30T10:28:46;96460.97;;;15.16;28.19
6680;BME280;3376;42.664;23.346;2024-01-30T10:31:16;96454.69;;;15.34;27.74
6680;BME280;3376;42.664;23.346;2024-01-30T10:33:44;96424.72;;;13.93;30.29
6680;BME280;3376;42.664;23.346;2024-01-30T10:36:13;96463.41;;;13.88;29.90
6680;BME280;3376;42.664;23.346;2024-01-30T10:38:42;96433.25;;;13.85;29.84
6680;BME280;3376;42.664;23.346;2024-01-30T10:41:15;96444.47;;;14.21;29.17
6680;BME280;3376;42.664;23.346;2024-01-30T10:43:52;96460.50;;;14.44;29.08
6680;BME280;3376;42.664;23.346;2024-01-30T10:46:30;96436.88;;;13.75;29.71
6680;BME280;3376;42.664;23.346;2024-01-30T10:48:58;96451.03;;;12.16;31.46
6680;BME280;3376;42.664;23.346;2024-01-30T10:51:26;96413.38;;;10.55;34.02
6680;BME280;3376;42.664;23.346;2024-01-30T10:53:54;96446.44;;;9.90;36.31
6680;BME280;3376;42.664;23.346;2024-01-30T10:56:24;96449.31;;;9.44;35.45
6680;BME280;3376;42.664;23.346;2024-01-30T10:58:51;96425.63;;;9.17;36.29
6680;BME280;3376;42.664;23.346;2024-01-30T11:01:19;96441.59;;;9.22;36.59
6680;BME280;3376;42.664;23.346;2024-01-30T11:03:49;96437.81;;;9.26;35.68
6680;BME280;3376;42.664;23.346;2024-01-30T11:06:16;96428.94;;;9.50;36.11
6680;BME280;3376;42.664;23.346;2024-01-30T11:08:45;96431.63;;;8.51;38.73
6680;BME280;3376;42.664;23.346;2024-01-30T11:11:12;96418.56;;;8.30;38.69
6680;BME280;3376;42.664;23.346;2024-01-30T11:13:40;96434.66;;;7.99;40.02
6680;BME280;3376;42.664;23.346;2024-01-30T11:16:11;96407.53;;;7.36;41.48
6680;BME280;3376;42.664;23.346;2024-01-30T11:18:38;96415.88;;;7.15;42.05
6680;BME280;3376;42.664;23.346;2024-01-30T11:21:05;96408.34;;;6.89;42.50
6680;BME280;3376;42.664;23.346;2024-01-30T11:23:33;96419.81;;;7.08;42.03
6680;BME280;3376;42.664;23.346;2024-01-30T11:26:01;96424.34;;;7.05;46.16
6680;BME280;3376;42.664;23.346;2024-01-30T11:28:32;96415.84;;;6.92;45.26
6680;BME280;3376;42.664;23.346;2024-01-30T11:31:05;96381.66;;;6.77;42.94
6680;BME280;3376;42.664;23.346;2024-01-30T11:33:32;96397.66;;;6.70;43.81
6680;BME280;3376;42.664;23.346;2024-01-30T11:36:00;96407.47;;;6.65;44.95
6680;BME280;3376;42.664;23.346;2024-01-30T11:38:28;96422.63;;;6.32;45.44
6680;BME280;3376;42.664;23.346;2024-01-30T11:40:55;96389.47;;;6.15;44.19
6680;BME280;3376;42.664;23.346;2024-01-30T11:43:23;96417.16;;;6.49;43.37
6680;BME280;3376;42.664;23.346;2024-01-30T11:45:51;96418.78;;;6.50;43.83
6680;BME280;3376;42.664;23.346;2024-01-30T11:48:19;96418.88;;;6.61;43.44
6680;BME280;3376;42.664;23.346;2024-01-30T11:50:46;96409.50;;;6.72;45.38
6680;BME280;3376;42.664;23.346;2024-01-30T11:53:14;96413.28;;;6.79;43.98
6680;BME280;3376;42.664;23.346;2024-01-30T11:55:40;96416.34;;;6.97;42.46
6680;BME280;3376;42.664;23.346;2024-01-30T11:58:08;96413.06;;;6.95;43.03
6680;BME280;3376;42.664;23.346;2024-01-30T12:00:35;96376.00;;;6.72;43.27
6680;BME280;3376;42.664;23.346;2024-01-30T12:03:03;96395.41;;;7.01;42.87
6680;BME280;3376;42.664;23.346;2024-01-30T12:05:33;96392.75;;;7.61;42.43
6680;BME280;3376;42.664;23.346;2024-01-30T12:08:01;96384.31;;;8.40;41.03
6680;BME280;3376;42.664;23.346;2024-01-30T12:10:28;96374.50;;;8.98;41.86
6680;BME280;3376;42.664;23.346;2024-01-30T12:12:55;96361.31;;;9.23;40.06
6680;BME280;3376;42.664;23.346;2024-01-30T12:15:22;96369.16;;;9.85;38.38
6680;BME280;3376;42.664;23.346;2024-01-30T12:17:49;96370.84;;;10.57;36.43
6680;BME280;3376;42.664;23.346;2024-01-30T12:20:18;96365.66;;;11.07;35.35
6680;BME280;3376;42.664;23.346;2024-01-30T12:22:49;96351.25;;;11.33;36.91
6680;BME280;3376;42.664;23.346;2024-01-30T12:25:17;96354.53;;;11.63;34.48
6680;BME280;3376;42.664;23.346;2024-01-30T12:27:45;96344.88;;;11.65;33.96
6680;BME280;3376;42.664;23.346;2024-01-30T12:30:16;96364.19;;;11.52;34.12
6680;BME280;3376;42.664;23.346;2024-01-30T12:32:44;96362.88;;;11.76;33.84
6680;BME280;3376;42.664;23.346;2024-01-30T12:35:12;96350.72;;;11.96;33.58
6680;BME280;3376;42.664;23.346;2024-01-30T12:37:40;96348.75;;;11.98;35.85
6680;BME280;3376;42.664;23.346;2024-01-30T12:40:09;96347.69;;;11.53;35.36
6680;BME280;3376;42.664;23.346;2024-01-30T12:42:37;96342.22;;;11.46;35.13
6680;BME280;3376;42.664;23.346;2024-01-30T12:45:05;96342.06;;;11.57;33.83
6680;BME280;3376;42.664;23.346;2024-01-30T12:47:32;96346.22;;;11.69;33.10
6680;BME280;3376;42.664;23.346;2024-01-30T12:49:59;96346.75;;;11.82;34.03
6680;BME280;3376;42.664;23.346;2024-01-30T12:52:26;96351.00;;;11.83;34.36
6680;BME280;3376;42.664;23.346;2024-01-30T12:54:53;96342.78;;;11.98;33.84
6680;BME280;3376;42.664;23.346;2024-01-30T12:57:22;96342.75;;;12.07;33.25
6680;BME280;3376;42.664;23.346;2024-01-30T12:59:48;96339.84;;;12.10;32.95
6680;BME280;3376;42.664;23.346;2024-01-30T13:02:16;96335.50;;;12.11;32.99
6680;BME280;3376;42.664;23.346;2024-01-30T13:04:43;96332.53;;;11.96;33.11
6680;BME280;3376;42.664;23.346;2024-01-30T13:07:10;96324.59;;;11.88;34.47
6680;BME280;3376;42.664;23.346;2024-01-30T13:09:37;96301.50;;;11.85;33.83
6680;BME280;3376;42.664;23.346;2024-01-30T13:12:04;96316.94;;;11.58;33.40
6680;BME280;3376;42.664;23.346;2024-01-30T13:14:33;96326.78;;;11.26;35.49
6680;BME280;3376;42.664;23.346;2024-01-30T13:17:00;96320.84;;;10.86;35.94
6680;BME280;3376;42.664;23.346;2024-01-30T13:19:27;96293.53;;;10.32;34.67